Tiempo atmosférico en la estación meteorológica de Alhama de Murcia, Murcia (157 m.)



Fecha
DESCASC
Temp. máxima en grados centígrados (hora)
DESCASC
Temp. mínima en grados centígrados (hora)
DESCASC
Temp. media en grados centígrados
DESCASC
Racha de viento máxima en m/sg (hora)
DESCASC
Velocidad máxima media en intervalos de 10 minutos(hora)
DESCASC
Precipitaciones diarias en mm
DESCASC
Precipitaciones de 00:00 a 06:00 en mm
DESCASC
Precipitaciones de 06:00 a 12:00 en mm
DESCASC
Precipitaciones de 12:00 a 18:00 en mm
DESCASC
Precipitaciones de 18:00 a 24:00 en mm
DESCASC
23-06-2019 32.2 (16:50) 15.9 (06:40) 24.1 9.44 (17:00) 6.11 (17:10) 0 0 0 0 0
22-06-2019 31.6 (16:10) 17 (06:50) 24.3 8.89 (15:40) 5.56 (17:30) 0 0 0 0 0
21-06-2019 31.7 (16:30) 18.2 (03:00) 25 10 (16:10) 5.56 (15:30) 0 0 0 0 0
20-06-2019 34.3 (15:30) 17.6 (00:00) 25.9 10 (16:00) 6.11 (16:00) 0 0 0 0 0
19-06-2019 35.3 (18:30) 16.2 (00:00) 25.8 10.56 (15:00) 6.67 (14:40) 0 0 0 0 0
18-06-2019 33.1 (19:20) 12.7 (00:00) 22.9 9.17 (13:30) 5.28 (14:00) 0 0 0 0 0
17-06-2019 33.2 (17:10) 12.1 (00:00) 22.7 11.94 (14:30) 6.39 (14:50) 0 0 0 0 0
16-06-2019 27.5 (13:50) 13.5 (00:00) 20.5 8.61 (13:40) 5.28 (13:40) 0 0 0 0 0
15-06-2019 30.6 (15:20) 18 (00:00) 24.3 11.11 (15:30) 6.67 (16:00) 0 0 0 0 0
14-06-2019 31.2 (15:50) 18.2 (00:00) 24.7 10.83 (02:20) 6.39 (02:30) 2.4 0 2.4 0 0
13-06-2019 26.7 (16:30) 18.4 (00:00) 22.6 11.11 (16:10) 6.67 (17:00) 0 0 0 0 0
12-06-2019 26.5 (16:40) 16.7 (00:00) 21.6 9.44 (19:40) 5.83 (21:20) 0 0 0 0 0
11-06-2019 30.8 (15:30) 13.9 (00:00) 22.3 13.33 (20:00) 8.89 (20:10) 0 0 0 0 0
10-06-2019 31.6 (14:50) 17 (00:00) 24.3 12.22 (17:50) 7.5 (17:50) 0 0 0 0 0
09-06-2019 29.3 (16:00) 16.6 (00:00) 22.9 11.67 (18:50) 7.5 (18:50) 0 0 0 0 0
08-06-2019 26.9 (14:40) 14.3 (00:00) 20.6 10.28 (12:30) 6.67 (15:40) 0 0 0 0 0
07-06-2019 30.2 (17:30) 14.5 (00:00) 22.4 11.11 (16:10) 6.11 (15:30) 0 0 0 0 0
06-06-2019 30.3 (15:40) 13.5 (00:00) 21.9 10 (16:40) 5.28 (16:10) 0 0 0 0 0
05-06-2019 29.3 (16:10) 14.8 (00:00) 22 10.83 (14:10) 6.11 (14:10) 0 0 0 0 0
04-06-2019 33.3 (16:40) 12.2 (00:00) 22.7 10.83 (18:20) 6.67 (18:20) 0 0 0 0 0
03-06-2019 33.8 (16:00) 11.8 (00:00) 22.8 9.44 (16:20) 4.44 (17:00) 0 0 0 0 0
02-06-2019 31.4 (16:50) 10.4 (00:00) 20.9 6.39 (18:20) 3.89 (17:20) 0 0 0 0 0
01-06-2019 28.9 (15:40) 11.6 (00:00) 20.3 7.78 (17:20) 4.72 (16:20) 0 0 0 0 0
31-05-2019 28.1 (15:30) 11.5 (00:00) 19.8 8.61 (14:50) 5.28 (19:10) 0 0 0 0 0
30-05-2019 27.6 (17:10) 11.7 (00:00) 19.7 10 (18:10) 5.28 (18:10) 0 0 0 0 0
29-05-2019 25.8 (15:40) 14.3 (00:00) 20 9.17 (17:00) 5.28 (16:10) 0 0 0 0 0
28-05-2019 29.8 (17:10) 16.2 (00:00) 23 8.89 (10:40) 5 (10:40) 0 0 0 0 0
27-05-2019 30.6 (15:30) 12.5 (00:00) 21.6 11.11 (23:10) 6.94 (19:10) 1 0 0 0 1

Gráficas

Temp. máximas Temp. mínimas Temp. medias Precipitaciones Rachas de viento máximas Velocidades máximas media en intervalos de 10 minutos

Datos horarios

Fecha y hora oficial Temperatura (ºC) Velocidad del viento (km/h) Dirección del viento Racha (km/h) Dirección de racha Precipitación (mm) Presión (hPa) Tendencia (hPa) Humedad (%)
2019-06-25 23:00:00 23.1 10 Sudoeste 25 Oeste 0 -- -- 76
2019-06-25 22:00:00 25 15 Oeste 26 Oeste 0 -- -- 67
2019-06-25 21:00:00 28.2 8 Noroeste 19 Oeste 0 -- -- 54
2019-06-25 20:00:00 31 9 Noroeste 27 Oeste 0 -- -- 49
2019-06-25 19:00:00 30.9 15 Oeste 29 Oeste 0 -- -- 50
2019-06-25 18:00:00 30.6 15 Oeste 36 Oeste 0 -- -- 50
2019-06-25 17:00:00 30.4 22 Oeste 39 Sur 0 -- -- 51
2019-06-25 16:00:00 32.1 17 Sudoeste 39 Oeste 0 -- -- 48
2019-06-25 15:00:00 30.6 21 Sudoeste 42 Sudoeste 0 -- -- 53
2019-06-25 14:00:00 32 16 Sudoeste 31 Sudoeste 0 -- -- 48
2019-06-25 13:00:00 30.5 8 Sudoeste 20 Oeste 0 -- -- 44
2019-06-25 12:00:00 28.6 9 Sudoeste 23 Sudoeste 0 -- -- 49
2019-06-25 11:00:00 27 10 Sudoeste 22 Sudoeste 0 -- -- 51
2019-06-25 10:00:00 25.8 9 Sudoeste 20 Oeste 0 -- -- 58
2019-06-25 09:00:00 22.6 4 Sudoeste 13 Sudoeste 0 -- -- 67
2019-06-25 08:00:00 19.2 8 Sudoeste 12 Sur 0 -- -- 83
2019-06-25 07:00:00 17.4 6 Sudoeste 11 Sur 0 -- -- 90
2019-06-25 06:00:00 17.8 4 Sur 7 Este 0 -- -- 89
2019-06-25 05:00:00 18.4 5 Este 8 Nordeste 0 -- -- 86
2019-06-25 04:00:00 18.7 4 Nordeste 9 Este 0 -- -- 83
2019-06-25 03:00:00 18.6 5 Sudeste 6 Sudeste 0 -- -- 85
2019-06-25 02:00:00 19.6 3 Nordeste 8 Nordeste 0 -- -- 80
2019-06-25 01:00:00 20.3 5 Sur 8 Sudeste 0 -- -- 79
2019-06-25 00:00:00 21.7 0 Calma 14 Sudoeste 0 -- -- 74
2019-06-24 23:00:00 23.3 7 Sudoeste 22 Sudoeste 0 -- -- 68
2019-06-24 22:00:00 24.5 10 Sudoeste 24 Oeste 0 -- -- 63
2019-06-24 21:00:00 27.3 14 Oeste 27 Sudoeste 0 -- -- 55
2019-06-24 20:00:00 29.5 18 Sudoeste 33 Oeste 0 -- -- 48
2019-06-24 19:00:00 32 5 Oeste 28 Oeste 0 -- -- 40
2019-06-24 18:00:00 32.2 12 Oeste 31 Sur 0 -- -- 39
2019-06-24 17:00:00 31.8 18 Sudoeste 40 Sur 0 -- -- 43
2019-06-24 16:00:00 31.7 19 Sudoeste 36 Sur 0 -- -- 44
2019-06-24 15:00:00 32 10 Norte 22 Norte 0 -- -- 35
2019-06-24 14:00:00 30.5 6 Noroeste 17 Nordeste 0 -- -- 37
2019-06-24 13:00:00 29.3 8 Norte 24 Norte 0 -- -- 38
2019-06-24 12:00:00 28.4 11 Nordeste 21 Nordeste 0 -- -- 38
2019-06-24 11:00:00 27 10 Nordeste 17 Norte 0 -- -- 41
2019-06-24 10:00:00 25.2 3 Nordeste 7 Este 0 -- -- 44
2019-06-24 09:00:00 22.7 2 Oeste 6 Oeste 0 -- -- 53
2019-06-24 08:00:00 19 4 Sur 10 Sur 0 -- -- 71
2019-06-24 07:00:00 17.2 4 Nordeste 8 Nordeste 0 -- -- 78
2019-06-24 06:00:00 17.7 5 Nordeste 10 Nordeste 0 -- -- 72
2019-06-24 05:00:00 18.5 5 Nordeste 10 Este 0 -- -- 71
2019-06-24 04:00:00 20.8 9 Este 14 Este 0 -- -- 58
2019-06-24 03:00:00 20.8 8 Este 13 Nordeste 0 -- -- 63
2019-06-24 02:00:00 20.5 9 Este 13 Nordeste 0 -- -- 69
2019-06-24 01:00:00 20.2 6 Nordeste 12 Nordeste 0 -- -- 73
2019-06-24 00:00:00 20.7 5 Nordeste 9 Nordeste 0 -- -- 74
2019-06-23 23:00:00 22.1 6 Norte 17 Nordeste 0 -- -- 65
2019-06-23 22:00:00 23.6 13 Nordeste 25 Nordeste 0 -- -- 54
2019-06-23 21:00:00 25.8 15 Nordeste 27 Nordeste 0 -- -- 42
2019-06-23 20:00:00 28.5 16 Nordeste 29 Norte 0 -- -- 31
2019-06-23 19:00:00 30.1 20 Nordeste 32 Norte 0 -- -- 30
2019-06-23 18:00:00 31.2 21 Nordeste 33 Nordeste 0 -- -- 28
2019-06-23 17:00:00 32.2 21 Nordeste 34 Nordeste 0 -- -- 29
2019-06-23 16:00:00 32.1 19 Norte 32 Nordeste 0 -- -- 32
2019-06-23 15:00:00 31.9 18 Nordeste 33 Nordeste 0 -- -- 34
2019-06-23 14:00:00 31.2 17 Nordeste 28 Nordeste 0 -- -- 39
2019-06-23 13:00:00 30.1 13 Nordeste 23 Norte 0 -- -- 37
2019-06-23 12:00:00 28.5 10 Nordeste 21 Nordeste 0 -- -- 37
2019-06-23 11:00:00 26.8 12 Nordeste 18 Nordeste 0 -- -- 41
2019-06-23 10:00:00 25.2 4 Nordeste 13 Nordeste 0 -- -- 49
2019-06-23 09:00:00 21.6 8 Norte 14 Norte 0 -- -- 71
2019-06-23 08:00:00 18.2 7 Nordeste 11 Nordeste 0 -- -- 84
2019-06-23 07:00:00 15.9 8 Nordeste 10 Nordeste 0 -- -- 94
2019-06-23 06:00:00 16.4 8 Nordeste 9 Nordeste 0 -- -- 92
2019-06-23 05:00:00 16.6 4 Nordeste 8 Norte 0 -- -- 89
2019-06-23 04:00:00 17.4 5 Nordeste 9 Nordeste 0 -- -- 86
2019-06-23 03:00:00 17.6 6 Norte 10 Nordeste 0 -- -- 86
2019-06-23 02:00:00 18.6 7 Nordeste 9 Nordeste 0 -- -- 82
2019-06-23 01:00:00 19.5 6 Nordeste 8 Nordeste 0 -- -- 78
2019-06-23 00:00:00 20.4 2 Nordeste 7 Nordeste 0 -- -- 73
2019-06-22 23:00:00 22.1 3 Nordeste 11 Norte 0 -- -- 62
2019-06-22 22:00:00 24.2 5 Norte 19 Norte 0 -- -- 45
2019-06-22 21:00:00 25.3 9 Norte 23 Nordeste 0 -- -- 55
2019-06-22 20:00:00 28.8 12 Norte 28 Nordeste 0 -- -- 45
2019-06-22 19:00:00 29.9 15 Nordeste 32 Nordeste 0 -- -- 41
2019-06-22 18:00:00 30.4 18 Nordeste 32 Nordeste 0 -- -- 43
2019-06-22 17:00:00 31 19 Nordeste 30 Nordeste 0 -- -- 42
2019-06-22 16:00:00 31.3 13 Nordeste 32 Nordeste 0 -- -- 43
2019-06-22 15:00:00 30.7 14 Nordeste 26 Norte 0 -- -- 45
2019-06-22 14:00:00 29.9 8 Noroeste 19 Oeste 0 -- -- 46
2019-06-22 13:00:00 28.3 6 Oeste 16 Oeste 0 -- -- 50
2019-06-22 12:00:00 27.2 6 Oeste 17 Oeste 0 -- -- 52
2019-06-22 11:00:00 25.8 4 Norte 10 Noroeste 0 -- -- 58
2019-06-22 10:00:00 24.3 3 Sur 6 Sudoeste 0 -- -- 63
2019-06-22 09:00:00 22 2 Oeste 5 Oeste 0 -- -- 72
2019-06-22 08:00:00 19.3 2 Sur 5 Este 0 -- -- 86
2019-06-22 07:00:00 17.1 3 Este 5 Este 0 -- -- 92
2019-06-22 06:00:00 17.6 0 Calma 8 Sur 0 -- -- 90
2019-06-22 05:00:00 17.9 5 Sur 8 Sudoeste 0 -- -- 89
2019-06-22 04:00:00 18.7 2 Sur 4 Sudoeste 0 -- -- 88
2019-06-22 03:00:00 19.2 2 Noroeste 6 Sur 0 -- -- 86
2019-06-22 02:00:00 19.5 5 Sur 8 Sur 0 -- -- 85
2019-06-22 01:00:00 20.1 3 Sur 6 Sudoeste 0 -- -- 83
2019-06-22 00:00:00 21.2 4 Sur 17 Oeste 0 -- -- 78
2019-06-21 23:00:00 22 10 Sudoeste 19 Sudoeste 0 -- -- 73
2019-06-21 22:00:00 23.5 4 Norte 12 Oeste 0 -- -- 67
2019-06-21 21:00:00 27 6 Nordeste 22 Sudoeste 0 -- -- 54
2019-06-21 20:00:00 29.5 7 Norte 22 Nordeste 0 -- -- 47
2019-06-21 19:00:00 31.1 11 Sur 30 Sudeste 0 -- -- 43
2019-06-21 18:00:00 31.7 12 Sudeste 33 Sur 0 -- -- 43
2019-06-21 17:00:00 31.5 17 Sur 36 Sur 0 -- -- 44
2019-06-21 16:00:00 31.3 17 Sur 35 Sudoeste 0 -- -- 45
2019-06-21 15:00:00 31.3 16 Sudoeste 30 Sudoeste 0 -- -- 46
2019-06-21 14:00:00 30.8 5 Sudoeste 19 Sur 0 -- -- 43
2019-06-21 13:00:00 29.2 6 Oeste 14 Oeste 0 -- -- 42
2019-06-21 12:00:00 27.3 5 Oeste 16 Sudoeste 0 -- -- 52
2019-06-21 11:00:00 25.9 6 Sur 16 Sudoeste 0 -- -- 59
2019-06-21 10:00:00 23.9 3 Este 14 Nordeste 0 -- -- 66
2019-06-21 09:00:00 22.1 8 Nordeste 15 Norte 0 -- -- 72
2019-06-21 08:00:00 19.6 6 Nordeste 9 Nordeste 0 -- -- 83
2019-06-21 07:00:00 19 7 Nordeste 9 Nordeste 0 -- -- 84
2019-06-21 06:00:00 19.6 6 Nordeste 15 Nordeste 0 -- -- 82
2019-06-21 05:00:00 19.7 6 Norte 12 Norte 0 -- -- 84
2019-06-21 04:00:00 19.3 9 Norte 13 Nordeste 0 -- -- 85
2019-06-21 03:00:00 18.2 4 Nordeste 9 Nordeste 0 -- -- 92
2019-06-21 02:00:00 18.9 6 Nordeste 11 Norte 0 -- -- 91
2019-06-21 01:00:00 19.4 8 Nordeste 11 Nordeste 0 -- -- 87
2019-06-21 00:00:00 20.4 4 Nordeste 20 Nordeste 0 -- -- 81
2019-06-20 23:00:00 21.6 11 Nordeste 17 Norte 0 -- -- 75
2019-06-20 22:00:00 23 13 Norte 22 Norte 0 -- -- 68
2019-06-20 21:00:00 25.7 16 Norte 27 Norte 0 -- -- 59
2019-06-20 20:00:00 29.7 15 Noroeste 30 Norte 0 -- -- 45
2019-06-20 19:00:00 33.1 10 Sur 28 Sudeste 0 -- -- 28
2019-06-20 18:00:00 33.1 17 Sudeste 32 Sudeste 0 -- -- 31
2019-06-20 17:00:00 33.3 19 Sudeste 34 Sudeste 0 -- -- 33
2019-06-20 16:00:00 33.2 22 Sudeste 36 Sudeste 0 -- -- 34
2019-06-20 15:00:00 34 14 Sudeste 34 Sudeste 0 -- -- 33
2019-06-20 14:00:00 34.1 17 Sudeste 34 Sur 0 -- -- 31
2019-06-20 13:00:00 32.7 6 Norte 23 Nordeste 0 -- -- 26
2019-06-20 12:00:00 31.9 6 Este 17 Nordeste 0 -- -- 28
2019-06-20 11:00:00 30.1 9 Norte 18 Noroeste 0 -- -- 30
2019-06-20 10:00:00 28.4 10 Noroeste 21 Noroeste 0 -- -- 33
2019-06-20 09:00:00 26.5 9 Este 20 Nordeste 0 -- -- 35
2019-06-20 08:00:00 24.4 7 Este 18 Este 0 -- -- 37
2019-06-20 07:00:00 23.7 7 Este 15 Nordeste 0 -- -- 37
2019-06-20 06:00:00 23.3 5 Nordeste 17 Nordeste 0 -- -- 37
2019-06-20 05:00:00 21.5 5 Nordeste 19 Este 0 -- -- 51
2019-06-20 04:00:00 19.6 10 Nordeste 17 Este 0 -- -- 68
2019-06-20 03:00:00 17.6 4 Nordeste 6 Nordeste 0 -- -- 83
2019-06-20 02:00:00 18 3 Sudoeste 11 Sur 0 -- -- 88
2019-06-20 01:00:00 18.9 8 Sur 13 Sudoeste 0 -- -- 84
2019-06-20 00:00:00 20 6 Sudoeste 18 Sudoeste 0 -- -- 77
2019-06-19 23:00:00 21.6 9 Sudoeste 18 Sudoeste 0 -- -- 68
2019-06-19 22:00:00 24.2 10 Sudoeste 19 Sudoeste 0 -- -- 52
2019-06-19 21:00:00 28.2 9 Sudoeste 27 Oeste 0 -- -- 37
2019-06-19 20:00:00 31.5 14 Oeste 32 Oeste 0 -- -- 28
2019-06-19 19:00:00 34.8 11 Sudoeste 23 Sur 0 -- -- 20
2019-06-19 18:00:00 35.2 11 Sur 26 Sur 0 -- -- 23
2019-06-19 17:00:00 34.2 14 Sur 31 Sudoeste 0 -- -- 24
2019-06-19 16:00:00 34.3 15 Sur 36 Sudoeste 0 -- -- 25
2019-06-19 15:00:00 33.1 21 Sur 38 Sur 0 -- -- 27
2019-06-19 14:00:00 33.1 2 Sudoeste 24 Sudoeste 0 -- -- 30
2019-06-19 13:00:00 31.8 5 Noroeste 15 Sudoeste 0 -- -- 26
2019-06-19 12:00:00 30.5 8 Nordeste 20 Noroeste 0 -- -- 29
2019-06-19 11:00:00 29.2 7 Norte 16 Nordeste 0 -- -- 29
2019-06-19 10:00:00 27.3 4 Nordeste 12 Norte 0 -- -- 34
2019-06-19 09:00:00 24.7 2 Oeste 13 Este 0 -- -- 44
2019-06-19 08:00:00 19.4 5 Nordeste 10 Noroeste 0 -- -- 79
2019-06-19 07:00:00 16.4 6 Nordeste 10 Nordeste 0 -- -- 88
2019-06-19 06:00:00 16.4 6 Nordeste 8 Nordeste 0 -- -- 94
2019-06-19 05:00:00 16.6 4 Sur 8 Sur 0 -- -- 95
2019-06-19 04:00:00 17.1 5 Sur 11 Sudoeste 0 -- -- 95
2019-06-19 03:00:00 16.5 8 Sur 11 Sur 0 -- -- 92
2019-06-19 02:00:00 17.1 3 Sudoeste 8 Sur 0 -- -- 89
2019-06-19 01:00:00 18.2 7 Sur 9 Sudoeste 0 -- -- 85
2019-06-19 00:00:00 19.9 5 Sudoeste 13 Noroeste 0 -- -- 78
2019-06-18 23:00:00 21.4 11 Sudoeste 21 Sudoeste 0 -- -- 56
2019-06-18 22:00:00 22.3 13 Sudoeste 24 Sur 0 -- -- 66
2019-06-18 21:00:00 26.6 12 Sudoeste 28 Sudoeste 0 -- -- 37
2019-06-18 20:00:00 32.5 6 Sur 21 Sur 0 -- -- 20
2019-06-18 19:00:00 32.8 7 Sudeste 26 Sudeste 0 -- -- 21
2019-06-18 18:00:00 32.6 15 Sur 32 Sur 0 -- -- 22
2019-06-18 17:00:00 32.7 16 Sur 31 Sudoeste 0 -- -- 24
2019-06-18 16:00:00 32.6 15 Sur 30 Sudoeste 0 -- -- 26
2019-06-18 15:00:00 32.3 15 Sur 31 Sur 0 -- -- 31
2019-06-18 14:00:00 31.1 19 Sur 33 Sudoeste 0 -- -- 34
2019-06-18 13:00:00 30.4 12 Sur 22 Sudeste 0 -- -- 32
2019-06-18 12:00:00 27.4 3 Sur 10 Noroeste 0 -- -- 37
2019-06-18 11:00:00 24.6 4 Oeste 8 Oeste 0 -- -- 41
2019-06-18 10:00:00 22 3 Noroeste 6 Oeste 0 -- -- 51
2019-06-18 09:00:00 18.8 3 Sudoeste 6 Oeste 0 -- -- 57
2019-06-18 08:00:00 15.2 0 Calma 5 Sur 0 -- -- 76
2019-06-18 07:00:00 12.7 5 Sur 5 Sur 0 -- -- 88
2019-06-18 06:00:00 13.7 0 Calma 5 Nordeste 0 -- -- 83
2019-06-18 05:00:00 14.7 4 Nordeste 6 Nordeste 0 -- -- 82
2019-06-18 04:00:00 15.4 6 Nordeste 9 Nordeste 0 -- -- 77
2019-06-18 03:00:00 15.8 5 Norte 9 Nordeste 0 -- -- 71
2019-06-18 02:00:00 15.6 2 Norte 5 Este 0 -- -- 75
2019-06-18 01:00:00 17.2 2 Sudeste 13 Nordeste 0 -- -- 60
2019-06-18 00:00:00 19.8 4 Nordeste 14 Sur 0 -- -- 48
2019-06-17 23:00:00 21.3 9 Sur 17 Sudoeste 0 -- -- 41
2019-06-17 22:00:00 23 6 Sudoeste 31 Sudoeste 0 -- -- 39
2019-06-17 21:00:00 26.1 15 Sudoeste 30 Sudoeste 0 -- -- 33
2019-06-17 20:00:00 29.5 13 Oeste 33 Oeste 0 -- -- 28
2019-06-17 19:00:00 32.6 10 Sur 25 Sudeste 0 -- -- 20
2019-06-17 18:00:00 33 15 Sudeste 26 Sudeste 0 -- -- 24
2019-06-17 17:00:00 33 15 Sudeste 30 Sudeste 0 -- -- 26
2019-06-17 16:00:00 32.5 17 Sur 37 Sur 0 -- -- 31
2019-06-17 15:00:00 31.5 23 Sur 43 Sudoeste 0 -- -- 36
2019-06-17 14:00:00 31.9 14 Sudoeste 23 Sudoeste 0 -- -- 25
2019-06-17 13:00:00 29.9 6 Sudoeste 15 Sudoeste 0 -- -- 27
2019-06-17 12:00:00 27.6 4 Oeste 10 Oeste 0 -- -- 34
2019-06-17 11:00:00 25.7 3 Norte 9 Nordeste 0 -- -- 34
2019-06-17 10:00:00 22.3 3 Norte 6 Norte 0 -- -- 50
2019-06-17 09:00:00 18 4 Sudoeste 6 Sudoeste 0 -- -- 67
2019-06-17 08:00:00 16.1 2 Nordeste 5 Nordeste 0 -- -- 76
2019-06-17 07:00:00 12.1 0 Calma 2 Sudeste 0 -- -- 94
2019-06-17 06:00:00 12.3 0 Calma 5 Sur 0 -- -- 92
2019-06-17 05:00:00 12.7 4 Sudoeste 6 Sudoeste 0 -- -- 91
2019-06-17 04:00:00 13.3 4 Sur 4 Sur 0 -- -- 90
2019-06-17 03:00:00 14.1 2 Este 3 Este 0 -- -- 89
2019-06-17 02:00:00 15.1 0 Calma 7 Sudeste 0 -- -- 85
2019-06-17 01:00:00 16.1 5 Sudeste 9 Este 0 -- -- 79
2019-06-17 00:00:00 17.1 6 Este 8 Este 0 -- -- 79
2019-06-16 23:00:00 18.3 4 Norte 10 Nordeste 0 -- -- 76
2019-06-16 22:00:00 20 5 Nordeste 11 Norte 0 -- -- 69
2019-06-16 21:00:00 22.3 6 Nordeste 21 Nordeste 0 -- -- 60
2019-06-16 20:00:00 22.8 15 Nordeste 25 Nordeste 0 -- -- 58
2019-06-16 19:00:00 24.7 17 Nordeste 27 Nordeste 0 -- -- 49
2019-06-16 18:00:00 26.5 15 Nordeste 28 Nordeste 0 -- -- 43
2019-06-16 17:00:00 26 18 Nordeste 28 Nordeste 0 -- -- 43
2019-06-16 16:00:00 25.1 17 Nordeste 27 Norte 0 -- -- 47
2019-06-16 15:00:00 25.8 15 Nordeste 28 Nordeste 0 -- -- 44
2019-06-16 14:00:00 26.6 18 Nordeste 31 Nordeste 0 -- -- 39
2019-06-16 13:00:00 26.5 13 Nordeste 26 Nordeste 0 -- -- 42
2019-06-16 12:00:00 24.6 9 Nordeste 20 Nordeste 0 -- -- 38
2019-06-16 11:00:00 22.9 11 Nordeste 19 Nordeste 0 -- -- 41
2019-06-16 10:00:00 22.2 10 Nordeste 16 Este 0 -- -- 43
2019-06-16 09:00:00 20.5 3 Noroeste 5 Norte 0 -- -- 51
2019-06-16 08:00:00 17.6 2 Nordeste 8 Nordeste 0 -- -- 66
2019-06-16 07:00:00 13.7 4 Nordeste 8 Norte 0 -- -- 76
2019-06-16 06:00:00 14.2 4 Nordeste 8 Nordeste 0 -- -- 70
2019-06-16 05:00:00 14.8 5 Nordeste 6 Nordeste 0 -- -- 68
2019-06-16 04:00:00 15.1 7 Nordeste 9 Nordeste 0 -- -- 64
2019-06-16 03:00:00 15.8 6 Nordeste 8 Nordeste 0 -- -- 59
2019-06-16 02:00:00 17 8 Nordeste 10 Nordeste 0 -- -- 54
2019-06-16 01:00:00 17.3 3 Este 10 Sur 0 -- -- 56
2019-06-16 00:00:00 18 9 Sur 12 Sur 0 -- -- 49
2019-06-15 23:00:00 19.5 7 Sudoeste 16 Sudoeste 0 -- -- 44
2019-06-15 22:00:00 22 11 Sudoeste 29 Sudoeste 0 -- -- 35
2019-06-15 21:00:00 24.6 16 Sudoeste 32 Sudoeste 0 -- -- 32
2019-06-15 20:00:00 27.3 19 Sudoeste 35 Sudoeste 0 -- -- 29
2019-06-15 19:00:00 28.7 18 Sudoeste 33 Sur 0 -- -- 30
2019-06-15 18:00:00 29.8 18 Sudoeste 32 Sur 0 -- -- 29
2019-06-15 17:00:00 30.4 17 Sur 37 Sur 0 -- -- 30
2019-06-15 16:00:00 29.2 24 Sudoeste 40 Sudoeste 0 -- -- 33
2019-06-15 15:00:00 30.3 15 Sur 30 Sudoeste 0 -- -- 32
2019-06-15 14:00:00 29 6 Este 18 Nordeste 0 -- -- 25
2019-06-15 13:00:00 27.3 5 Norte 20 Norte 0 -- -- 27
2019-06-15 12:00:00 25.9 6 Norte 20 Norte 0 -- -- 29
2019-06-15 11:00:00 24.1 11 Norte 27 Noroeste 0 -- -- 32
2019-06-15 10:00:00 22.8 15 Noroeste 23 Noroeste 0 -- -- 34
2019-06-15 09:00:00 21.6 5 Norte 16 Nordeste 0 -- -- 39
2019-06-15 08:00:00 20.4 5 Este 15 Norte 0 -- -- 43
2019-06-15 07:00:00 19.4 12 Nordeste 22 Nordeste 0 -- -- 44
2019-06-15 06:00:00 20.1 10 Nordeste 25 Este 0 -- -- 41
2019-06-15 05:00:00 20.4 10 Nordeste 24 Nordeste 0 -- -- 37
2019-06-15 04:00:00 21.2 9 Nordeste 21 Nordeste 0 -- -- 35
2019-06-15 03:00:00 21.7 11 Nordeste 22 Este 0 -- -- 37
2019-06-15 02:00:00 21.6 12 Nordeste 15 Nordeste 0 -- -- 49
2019-06-15 01:00:00 20 6 Nordeste 11 Nordeste 0 -- -- 57
2019-06-15 00:00:00 19.8 8 Sudoeste 17 Sudoeste 0 -- -- 65
2019-06-14 23:00:00 20.5 10 Sudoeste 15 Sudoeste 0 -- -- 61
2019-06-14 22:00:00 22.7 6 Sudoeste 15 Sudoeste 0 -- -- 50
2019-06-14 21:00:00 25.4 11 Oeste 23 Sudoeste 0 -- -- 43
2019-06-14 20:00:00 30.7 13 Sudeste 25 Sudeste 0 -- -- 31
2019-06-14 19:00:00 30.2 16 Sur 30 Sudeste 0 -- -- 34
2019-06-14 18:00:00 30.4 18 Sur 32 Sur 0 -- -- 38
2019-06-14 17:00:00 31 14 Sur 33 Sudoeste 0 -- -- 37
2019-06-14 16:00:00 31 15 Sur 31 Sur 0 -- -- 37
2019-06-14 15:00:00 29.8 15 Sur 33 Sur 0 -- -- 44
2019-06-14 14:00:00 29.6 13 Sur 29 Sudoeste 0 -- -- 44
2019-06-14 13:00:00 27.3 10 Sudoeste 18 Oeste 0 -- -- 53
2019-06-14 12:00:00 25 5 Sudoeste 17 Oeste 0 -- -- 62
2019-06-14 11:00:00 22.4 6 Oeste 15 Sudoeste 0 -- -- 72
2019-06-14 10:00:00 19.9 5 Sudoeste 12 Sudoeste 0 -- -- 93
2019-06-14 09:00:00 18.4 4 Sudoeste 10 Sudoeste 1 -- -- 93
2019-06-14 08:00:00 18.5 6 Sudoeste 27 Sudoeste 1.4 -- -- 89
2019-06-14 07:00:00 20.1 13 Sur 28 Sur 0 -- -- 69
2019-06-14 06:00:00 19.7 14 Sur 30 Sur 0 -- -- 71
2019-06-14 05:00:00 19.8 17 Sur 29 Sur 0 -- -- 68
2019-06-14 04:00:00 19.6 13 Sur 28 Sur 0 -- -- 75
2019-06-14 03:00:00 20 15 Sur 39 Sur 0 -- -- 71
2019-06-14 02:00:00 19.8 14 Sur 28 Sur 0 -- -- 66
2019-06-14 01:00:00 19 12 Sur 18 Sur 0 -- -- 64
2019-06-14 00:00:00 18.9 12 Sur 21 Sudoeste 0 -- -- 68
2019-06-13 23:00:00 19.3 2 Sur 14 Sudoeste 0 -- -- 66
2019-06-13 22:00:00 20.4 5 Sudoeste 21 Nordeste 0 -- -- 60
2019-06-13 21:00:00 22.7 12 Nordeste 21 Nordeste 0 -- -- 52
2019-06-13 20:00:00 24.9 9 Nordeste 27 Nordeste 0 -- -- 48
2019-06-13 19:00:00 25.7 16 Nordeste 29 Nordeste 0 -- -- 46
2019-06-13 18:00:00 26.3 19 Nordeste 34 Nordeste 0 -- -- 45
2019-06-13 17:00:00 26.2 24 Norte 40 Nordeste 0 -- -- 43
2019-06-13 16:00:00 26.6 21 Nordeste 37 Norte 0 -- -- 42
2019-06-13 15:00:00 26.2 20 Nordeste 39 Norte 0 -- -- 44
2019-06-13 14:00:00 25.9 19 Nordeste 32 Nordeste 0 -- -- 45
2019-06-13 13:00:00 25 15 Nordeste 33 Norte 0 -- -- 49
2019-06-13 12:00:00 23.3 13 Nordeste 31 Nordeste 0 -- -- 56
2019-06-13 11:00:00 21.5 15 Nordeste 25 Nordeste 0 -- -- 66
2019-06-13 10:00:00 20.1 15 Nordeste 30 Nordeste 0 -- -- 74
2019-06-13 09:00:00 19.5 21 Nordeste 35 Nordeste 0 -- -- 80
2019-06-13 08:00:00 19 12 Nordeste 21 Nordeste 0 -- -- 84
2019-06-13 07:00:00 18.6 5 Nordeste 12 Norte 0 -- -- 83
2019-06-13 06:00:00 18.7 5 Nordeste 12 Nordeste 0 -- -- 83
2019-06-13 05:00:00 18.6 8 Nordeste 13 Norte 0 -- -- 84
2019-06-13 04:00:00 18.7 7 Norte 10 Norte 0 -- -- 85
2019-06-13 03:00:00 18.5 7 Nordeste 14 Nordeste 0 -- -- 85
2019-06-13 02:00:00 18.6 8 Norte 12 Norte 0 -- -- 83
2019-06-13 01:00:00 18.9 7 Nordeste 15 Norte 0 -- -- 80
2019-06-13 00:00:00 18.9 11 Nordeste 16 Nordeste 0 -- -- 78
2019-06-12 23:00:00 19.1 10 Nordeste 24 Nordeste 0 -- -- 74
2019-06-12 22:00:00 19.6 15 Nordeste 33 Nordeste 0 -- -- 68
2019-06-12 21:00:00 20.7 18 Nordeste 33 Nordeste 0 -- -- 66
2019-06-12 20:00:00 23.2 17 Nordeste 34 Nordeste 0 -- -- 55
2019-06-12 19:00:00 25.6 9 Nordeste 24 Sudeste 0 -- -- 44
2019-06-12 18:00:00 25.5 6 Este 24 Este 0 -- -- 44
2019-06-12 17:00:00 26.3 5 Sur 26 Norte 0 -- -- 38
2019-06-12 16:00:00 26.1 15 Nordeste 30 Nordeste 0 -- -- 40
2019-06-12 15:00:00 25.9 14 Nordeste 28 Nordeste 0 -- -- 37
2019-06-12 14:00:00 24.7 9 Norte 24 Norte 0 -- -- 38
2019-06-12 13:00:00 24.2 9 Norte 20 Norte 0 -- -- 39
2019-06-12 12:00:00 22.4 8 Norte 20 Norte 0 -- -- 43
2019-06-12 11:00:00 21.1 10 Norte 21 Norte 0 -- -- 49
2019-06-12 10:00:00 20.7 12 Nordeste 30 Nordeste 0 -- -- 47
2019-06-12 09:00:00 19.5 16 Nordeste 30 Nordeste 0 -- -- 46
2019-06-12 08:00:00 17.7 9 Norte 14 Norte 0 -- -- 65
2019-06-12 07:00:00 16.7 5 Norte 8 Nordeste 0 -- -- 68
2019-06-12 06:00:00 17.2 2 Sudoeste 10 Sudeste 0 -- -- 73
2019-06-12 05:00:00 17.3 6 Norte 13 Norte 0 -- -- 72
2019-06-12 04:00:00 17.4 8 Nordeste 14 Nordeste 0 -- -- 73
2019-06-12 03:00:00 17.3 9 Nordeste 14 Norte 0 -- -- 77
2019-06-12 02:00:00 17.8 6 Norte 10 Norte 0 -- -- 75
2019-06-12 01:00:00 18.2 3 Norte 9 Norte 0 -- -- 74
2019-06-12 00:00:00 17.8 8 Norte 19 Nordeste 0 -- -- 74
2019-06-11 23:00:00 18.4 14 Nordeste 33 Nordeste 0 -- -- 71
2019-06-11 22:00:00 19.5 19 Norte 35 Nordeste 0 -- -- 72
2019-06-11 21:00:00 20.2 24 Nordeste 48 Nordeste 0 -- -- 70
2019-06-11 20:00:00 23.4 27 Norte 48 Nordeste 0 -- -- 57
2019-06-11 19:00:00 27.9 18 Sudeste 40 Sudeste 0 -- -- 40
2019-06-11 18:00:00 29.7 19 Sur 40 Sur 0 -- -- 30
2019-06-11 17:00:00 30.1 18 Sudeste 35 Sudeste 0 -- -- 26
2019-06-11 16:00:00 30.3 15 Sur 39 Sur 0 -- -- 26
2019-06-11 15:00:00 30.3 20 Sur 40 Sur 0 -- -- 27
2019-06-11 14:00:00 30.4 13 Sur 32 Sur 0 -- -- 33
2019-06-11 13:00:00 28.5 7 Norte 15 Norte 0 -- -- 26
2019-06-11 12:00:00 26.8 5 Norte 13 Norte 0 -- -- 32
2019-06-11 11:00:00 25 6 Norte 12 Norte 0 -- -- 34
2019-06-11 10:00:00 22.1 4 Norte 7 Norte 0 -- -- 60
2019-06-11 09:00:00 19 2 Sudoeste 7 Oeste 0 -- -- 74
2019-06-11 08:00:00 16.4 0 Calma 6 Nordeste 0 -- -- 84
2019-06-11 07:00:00 14.3 5 Nordeste 8 Nordeste 0 -- -- 94
2019-06-11 06:00:00 13.9 6 Nordeste 8 Nordeste 0 -- -- 91
2019-06-11 05:00:00 15.1 5 Nordeste 8 Nordeste 0 -- -- 91
2019-06-11 04:00:00 15.7 2 Nordeste 7 Nordeste 0 -- -- 84
2019-06-11 03:00:00 17 4 Nordeste 8 Nordeste 0 -- -- 83
2019-06-11 02:00:00 17.6 6 Este 7 Este 0 -- -- 90
2019-06-11 01:00:00 18.2 4 Nordeste 10 Nordeste 0 -- -- 88
2019-06-11 00:00:00 19.2 8 Nordeste 14 Nordeste 0 -- -- 81
2019-06-10 23:00:00 21.1 11 Nordeste 21 Sudeste 0 -- -- 66
2019-06-10 22:00:00 24.5 15 Sudeste 31 Sudeste 0 -- -- 30
2019-06-10 21:00:00 25.9 18 Sur 32 Sudeste 0 -- -- 25
2019-06-10 20:00:00 27 20 Sur 37 Sur 0 -- -- 28
2019-06-10 19:00:00 27 15 Sur 40 Sur 0 -- -- 29
2019-06-10 18:00:00 28.8 26 Sur 44 Sur 0 -- -- 28
2019-06-10 17:00:00 29.9 27 Sur 41 Sudeste 0 -- -- 27
2019-06-10 16:00:00 31.1 20 Sur 37 Sur 0 -- -- 27
2019-06-10 15:00:00 31.5 21 Sur 35 Sur 0 -- -- 27
2019-06-10 14:00:00 30.3 6 Norte 20 Norte 0 -- -- 21
2019-06-10 13:00:00 29.5 7 Noroeste 22 Norte 0 -- -- 21
2019-06-10 12:00:00 28.5 10 Norte 23 Norte 0 -- -- 23
2019-06-10 11:00:00 26.9 11 Norte 28 Noroeste 0 -- -- 27
2019-06-10 10:00:00 25.2 14 Norte 24 Noroeste 0 -- -- 30
2019-06-10 09:00:00 24 6 Norte 17 Este 0 -- -- 32
2019-06-10 08:00:00 23 12 Nordeste 21 Nordeste 0 -- -- 33
2019-06-10 07:00:00 22.6 13 Nordeste 30 Este 0 -- -- 32
2019-06-10 06:00:00 22 11 Este 20 Este 0 -- -- 35
2019-06-10 05:00:00 21.9 10 Nordeste 17 Nordeste 0 -- -- 41
2019-06-10 04:00:00 20.9 4 Nordeste 17 Norte 0 -- -- 51
2019-06-10 03:00:00 17.5 4 Nordeste 13 Este 0 -- -- 87
2019-06-10 02:00:00 17.1 2 Este 9 Sudoeste 0 -- -- 88
2019-06-10 01:00:00 18.2 5 Sudoeste 16 Sudoeste 0 -- -- 85
2019-06-10 00:00:00 19.5 12 Oeste 25 Sudoeste 0 -- -- 80
2019-06-09 23:00:00 20.8 14 Sudoeste 28 Sudoeste 0 -- -- 70
2019-06-09 22:00:00 23.2 11 Sudoeste 27 Sudoeste 0 -- -- 44
2019-06-09 21:00:00 25 16 Sur 31 Sur 0 -- -- 39
2019-06-09 20:00:00 26.5 20 Sur 37 Sudoeste 0 -- -- 41
2019-06-09 19:00:00 26.2 23 Sudoeste 42 Sur 0 -- -- 48
2019-06-09 18:00:00 28.3 21 Sudoeste 36 Sudoeste 0 -- -- 45
2019-06-09 17:00:00 29 19 Sudoeste 33 Sur 0 -- -- 42
2019-06-09 16:00:00 29.3 18 Sudoeste 31 Sur 0 -- -- 41
2019-06-09 15:00:00 28.6 14 Sudoeste 27 Sudoeste 0 -- -- 40
2019-06-09 14:00:00 27.7 12 Sudoeste 21 Sudoeste 0 -- -- 41
2019-06-09 13:00:00 25.7 8 Sur 17 Sudoeste 0 -- -- 44
2019-06-09 12:00:00 25.1 9 Sudoeste 24 Sudoeste 0 -- -- 45
2019-06-09 11:00:00 25.5 17 Sur 26 Sudoeste 0 -- -- 41
2019-06-09 10:00:00 22.8 15 Sur 24 Sudoeste 0 -- -- 49
2019-06-09 09:00:00 20.4 11 Sudoeste 24 Sudoeste 0 -- -- 58
2019-06-09 08:00:00 19.4 12 Sudoeste 19 Sudoeste 0 -- -- 60
2019-06-09 07:00:00 18.8 9 Sudoeste 21 Sur 0 -- -- 62
2019-06-09 06:00:00 18.6 14 Sur 21 Sur 0 -- -- 64
2019-06-09 05:00:00 18 7 Sur 14 Sur 0 -- -- 67
2019-06-09 04:00:00 16.6 7 Sudoeste 14 Sudoeste 0 -- -- 78
2019-06-09 03:00:00 17.9 5 Sudoeste 13 Sudeste 0 -- -- 73
2019-06-09 02:00:00 17.6 10 Sur 13 Sur 0 -- -- 77
2019-06-09 01:00:00 18.2 9 Sur 13 Sudoeste 0 -- -- 72
2019-06-09 00:00:00 18.5 5 Sudoeste 11 Sudoeste 0 -- -- 70
2019-06-08 23:00:00 18.9 6 Sudoeste 9 Sudeste 0 -- -- 66
2019-06-08 22:00:00 20.4 4 Sudeste 13 Nordeste 0 -- -- 61
2019-06-08 21:00:00 22.4 9 Nordeste 23 Nordeste 0 -- -- 52
2019-06-08 20:00:00 24.1 12 Nordeste 27 Nordeste 0 -- -- 50
2019-06-08 19:00:00 25.8 18 Nordeste 33 Norte 0 -- -- 49
2019-06-08 18:00:00 26.1 19 Nordeste 36 Nordeste 0 -- -- 49
2019-06-08 17:00:00 26.6 19 Nordeste 35 Nordeste 0 -- -- 47
2019-06-08 16:00:00 26.2 23 Norte 37 Nordeste 0 -- -- 47
2019-06-08 15:00:00 26.9 20 Norte 35 Nordeste 0 -- -- 44
2019-06-08 14:00:00 26.8 19 Norte 37 Norte 0 -- -- 45
2019-06-08 13:00:00 25.9 22 Nordeste 37 Norte 0 -- -- 47
2019-06-08 12:00:00 26.2 18 Nordeste 32 Nordeste 0 -- -- 44
2019-06-08 11:00:00 24.3 13 Norte 22 Norte 0 -- -- 43
2019-06-08 10:00:00 23.1 11 Norte 18 Norte 0 -- -- 45
2019-06-08 09:00:00 21.2 7 Norte 10 Norte 0 -- -- 54
2019-06-08 08:00:00 18.2 4 Nordeste 8 Nordeste 0 -- -- 69
2019-06-08 07:00:00 14.5 6 Este 8 Nordeste 0 -- -- 85
2019-06-08 06:00:00 14.7 8 Nordeste 9 Nordeste 0 -- -- 82
2019-06-08 05:00:00 15.6 7 Nordeste 9 Nordeste 0 -- -- 76
2019-06-08 04:00:00 16.1 4 Nordeste 6 Nordeste 0 -- -- 81
2019-06-08 03:00:00 16.7 3 Norte 9 Este 0 -- -- 81
2019-06-08 02:00:00 16.5 3 Este 5 Nordeste 0 -- -- 78
2019-06-08 01:00:00 18 5 Nordeste 12 Nordeste 0 -- -- 63
2019-06-08 00:00:00 18.7 6 Nordeste 8 Norte 0 -- -- 52
2019-06-07 23:00:00 20 6 Sudeste 11 Sur 0 -- -- 47
2019-06-07 22:00:00 21.8 8 Sudoeste 21 Sudoeste 0 -- -- 41
2019-06-07 21:00:00 24.7 11 Oeste 29 Oeste 0 -- -- 32
2019-06-07 20:00:00 27.2 19 Oeste 33 Sudoeste 0 -- -- 28
2019-06-07 19:00:00 29.2 16 Sudoeste 31 Sudoeste 0 -- -- 26
2019-06-07 18:00:00 29.9 16 Sur 27 Sudeste 0 -- -- 28
2019-06-07 17:00:00 29.8 17 Sur 40 Sudoeste 0 -- -- 32
2019-06-07 16:00:00 29.4 22 Sur 37 Sur 0 -- -- 33
2019-06-07 15:00:00 29.6 19 Sudoeste 33 Sur 0 -- -- 34
2019-06-07 14:00:00 29.8 8 Sudoeste 21 Sudoeste 0 -- -- 34
2019-06-07 13:00:00 28 3 Noroeste 14 Nordeste 0 -- -- 29
2019-06-07 12:00:00 25.9 6 Nordeste 15 Nordeste 0 -- -- 32
2019-06-07 11:00:00 24.4 5 Nordeste 13 Nordeste 0 -- -- 35
2019-06-07 10:00:00 22.8 6 Nordeste 18 Nordeste 0 -- -- 40
2019-06-07 09:00:00 20 4 Norte 12 Este 0 -- -- 58
2019-06-07 08:00:00 16.4 6 Nordeste 9 Nordeste 0 -- -- 90
2019-06-07 07:00:00 15.2 5 Este 10 Este 0 -- -- 94
2019-06-07 06:00:00 14.5 6 Nordeste 8 Nordeste 0 -- -- 94
2019-06-07 05:00:00 15.2 6 Nordeste 8 Nordeste 0 -- -- 92
2019-06-07 04:00:00 15.8 5 Nordeste 9 Este 0 -- -- 90
2019-06-07 03:00:00 15.4 5 Nordeste 6 Nordeste 0 -- -- 90
2019-06-07 02:00:00 16.1 4 Norte 9 Nordeste 0 -- -- 88
2019-06-07 01:00:00 16.4 2 Nordeste 8 Este 0 -- -- 86
2019-06-07 00:00:00 17.1 3 Sur 10 Sur 0 -- -- 79
2019-06-06 23:00:00 18.3 3 Sur 8 Sudoeste 0 -- -- 70
2019-06-06 22:00:00 20.9 0 Calma 10 Este 0 -- -- 57
2019-06-06 21:00:00 25.6 5 Nordeste 21 Oeste 0 -- -- 39
2019-06-06 20:00:00 27.5 9 Sur 29 Sudoeste 0 -- -- 27
2019-06-06 19:00:00 28.8 14 Sur 31 Sudeste 0 -- -- 29
2019-06-06 18:00:00 29.5 12 Sudeste 28 Sudeste 0 -- -- 28
2019-06-06 17:00:00 29.2 16 Sudeste 36 Este 0 -- -- 33
2019-06-06 16:00:00 29.5 16 Sudeste 35 Sudeste 0 -- -- 38
2019-06-06 15:00:00 29.8 14 Sur 26 Este 0 -- -- 28
2019-06-06 14:00:00 28.2 6 Norte 19 Nordeste 0 -- -- 25
2019-06-06 13:00:00 26.9 8 Nordeste 23 Norte 0 -- -- 23
2019-06-06 12:00:00 25.8 12 Nordeste 23 Nordeste 0 -- -- 24
2019-06-06 11:00:00 24.5 10 Nordeste 18 Nordeste 0 -- -- 25
2019-06-06 10:00:00 23.2 9 Nordeste 16 Este 0 -- -- 26
2019-06-06 09:00:00 21.3 6 Nordeste 10 Nordeste 0 -- -- 32
2019-06-06 08:00:00 18.4 6 Nordeste 9 Nordeste 0 -- -- 37
2019-06-06 07:00:00 14.1 6 Nordeste 9 Norte 0 -- -- 47
2019-06-06 06:00:00 14.4 5 Nordeste 9 Nordeste 0 -- -- 48
2019-06-06 05:00:00 14.6 4 Nordeste 6 Nordeste 0 -- -- 49
2019-06-06 04:00:00 15.8 4 Nordeste 9 Nordeste 0 -- -- 43
2019-06-06 03:00:00 16.8 6 Norte 11 Nordeste 0 -- -- 36
2019-06-06 02:00:00 15.9 4 Nordeste 8 Este 0 -- -- 46
2019-06-06 01:00:00 17 3 Nordeste 8 Nordeste 0 -- -- 44
2019-06-06 00:00:00 18.9 2 Sudeste 10 Sudeste 0 -- -- 35
2019-06-05 23:00:00 20.1 8 Sudeste 10 Sudeste 0 -- -- 33
2019-06-05 22:00:00 21.8 5 Sudeste 9 Norte 0 -- -- 33
2019-06-05 21:00:00 25.3 5 Norte 15 Norte 0 -- -- 23
2019-06-05 20:00:00 26.9 7 Norte 20 Norte 0 -- -- 20
2019-06-05 19:00:00 27.4 12 Norte 27 Norte 0 -- -- 18
2019-06-05 18:00:00 28.6 13 Norte 27 Norte 0 -- -- 17
2019-06-05 17:00:00 29 17 Norte 35 Nordeste 0 -- -- 17
2019-06-05 16:00:00 28.9 18 Noroeste 33 Noroeste 0 -- -- 16
2019-06-05 15:00:00 28.5 17 Norte 39 Noroeste 0 -- -- 15
2019-06-05 14:00:00 28.8 16 Noroeste 37 Norte 0 -- -- 16
2019-06-05 13:00:00 28.7 16 Noroeste 31 Noroeste 0 -- -- 18
2019-06-05 12:00:00 28.3 15 Noroeste 33 Oeste 0 -- -- 21
2019-06-05 11:00:00 27 13 Noroeste 26 Noroeste 0 -- -- 30
2019-06-05 10:00:00 24.9 8 Sudoeste 16 Sudoeste 0 -- -- 42
2019-06-05 09:00:00 20 4 Sudoeste 13 Sur 0 -- -- 73
2019-06-05 08:00:00 16.3 5 Sudoeste 10 Oeste 0 -- -- 86
2019-06-05 07:00:00 14.8 4 Sur 7 Sur 0 -- -- 93
2019-06-05 06:00:00 15.2 0 Calma 6 Este 0 -- -- 91
2019-06-05 05:00:00 15.4 6 Este 9 Norte 0 -- -- 90
2019-06-05 04:00:00 15.9 8 Nordeste 11 Nordeste 0 -- -- 90
2019-06-05 03:00:00 15.8 3 Sudoeste 8 Sudoeste 0 -- -- 90
2019-06-05 02:00:00 16.4 5 Sur 10 Sur 0 -- -- 87
2019-06-05 01:00:00 18.1 4 Sur 20 Sudoeste 0 -- -- 79
2019-06-05 00:00:00 19 14 Sudoeste 22 Sudoeste 0 -- -- 72
2019-06-04 23:00:00 19.9 12 Sudoeste 22 Sudoeste 0 -- -- 62
2019-06-04 22:00:00 21.8 10 Oeste 23 Oeste 0 -- -- 46
2019-06-04 21:00:00 25.6 16 Sudoeste 28 Sur 0 -- -- 30
2019-06-04 20:00:00 28.5 13 Sur 29 Sur 0 -- -- 23
2019-06-04 19:00:00 30.3 21 Sur 39 Sudeste 0 -- -- 23
2019-06-04 18:00:00 31.7 18 Sur 32 Sudoeste 0 -- -- 23
2019-06-04 17:00:00 33 17 Sur 31 Sur 0 -- -- 24
2019-06-04 16:00:00 32.9 16 Sudoeste 37 Sudoeste 0 -- -- 27
2019-06-04 15:00:00 31.9 20 Sudoeste 37 Sudoeste 0 -- -- 34
2019-06-04 14:00:00 30.7 17 Sudoeste 33 Sudoeste 0 -- -- 38
2019-06-04 13:00:00 28.8 12 Oeste 23 Oeste 0 -- -- 35
2019-06-04 12:00:00 27.1 7 Oeste 17 Sudoeste 0 -- -- 38
2019-06-04 11:00:00 24.6 7 Sur 13 Sur 0 -- -- 43
2019-06-04 10:00:00 21.7 3 Norte 6 Nordeste 0 -- -- 53
2019-06-04 09:00:00 18.6 2 Noroeste 5 Noroeste 0 -- -- 65
2019-06-04 08:00:00 14.6 0 Calma 5 Sudoeste 0 -- -- 79
2019-06-04 07:00:00 12.3 2 Sur 3 Sudoeste 0 -- -- 90
2019-06-04 06:00:00 12.4 0 Calma 4 Sudoeste 0 -- -- 87
2019-06-04 05:00:00 12.9 5 Sudoeste 6 Sudoeste 0 -- -- 83
2019-06-04 04:00:00 13.8 0 Calma 4 Nordeste 0 -- -- 81
2019-06-04 03:00:00 14.4 0 Calma 3 Este 0 -- -- 79
2019-06-04 02:00:00 15.7 3 Este 8 Sur 0 -- -- 69
2019-06-04 01:00:00 16.8 7 Sur 9 Sur 0 -- -- 60
2019-06-04 00:00:00 17.5 6 Sur 9 Sur 0 -- -- 53
2019-06-03 23:00:00 19.5 3 Sur 12 Sudoeste 0 -- -- 48
2019-06-03 22:00:00 22 8 Oeste 22 Oeste 0 -- -- 38
2019-06-03 21:00:00 25 12 Oeste 24 Oeste 0 -- -- 31
2019-06-03 20:00:00 29.8 10 Sudoeste 26 Sudoeste 0 -- -- 25
2019-06-03 19:00:00 30.6 13 Sudoeste 28 Sudoeste 0 -- -- 25
2019-06-03 18:00:00 33.1 13 Sur 28 Sudeste 0 -- -- 31
2019-06-03 17:00:00 32.3 16 Sur 34 Sudoeste 0 -- -- 27
2019-06-03 16:00:00 33.8 8 Sudeste 33 Oeste 0 -- -- 23
2019-06-03 15:00:00 32.2 10 Sudoeste 21 Oeste 0 -- -- 22
2019-06-03 14:00:00 31.2 4 Este 16 Este 0 -- -- 22
2019-06-03 13:00:00 30.2 8 Sudeste 19 Oeste 0 -- -- 24
2019-06-03 12:00:00 26.6 4 Nordeste 10 Norte 0 -- -- 33
2019-06-03 11:00:00 24.1 4 Noroeste 10 Nordeste 0 -- -- 35
2019-06-03 10:00:00 21.7 5 Nordeste 11 Norte 0 -- -- 46
2019-06-03 09:00:00 19.2 6 Norte 9 Norte 0 -- -- 57
2019-06-03 08:00:00 16.3 3 Norte 6 Este 0 -- -- 63
2019-06-03 07:00:00 11.9 4 Este 5 Este 0 -- -- 84
2019-06-03 06:00:00 12.2 6 Sudoeste 8 Sudoeste 0 -- -- 83
2019-06-03 05:00:00 12.7 2 Norte 3 Norte 0 -- -- 85
2019-06-03 04:00:00 13.4 3 Sur 5 Sur 0 -- -- 83
2019-06-03 03:00:00 13.8 0 Calma 4 Sudoeste 0 -- -- 79
2019-06-03 02:00:00 15.2 3 Sudoeste 9 Sur 0 -- -- 71
2019-06-03 01:00:00 16.7 4 Sur 11 Sur 0 -- -- 64
2019-06-03 00:00:00 17.8 6 Sur 12 Sur 0 -- -- 57
2019-06-02 23:00:00 18.9 4 Sudoeste 14 Sudoeste 0 -- -- 51
2019-06-02 22:00:00 21.7 3 Sudoeste 10 Sur 0 -- -- 40
2019-06-02 21:00:00 25.7 7 Oeste 15 Oeste 0 -- -- 30
2019-06-02 20:00:00 29.2 7 Noroeste 20 Oeste 0 -- -- 24
2019-06-02 19:00:00 30.1 9 Oeste 23 Norte 0 -- -- 22
2019-06-02 18:00:00 30.6 10 Norte 22 Norte 0 -- -- 20
2019-06-02 17:00:00 31.2 11 Nordeste 21 Nordeste 0 -- -- 18
2019-06-02 16:00:00 30.8 10 Norte 19 Norte 0 -- -- 19
2019-06-02 15:00:00 30.4 6 Noroeste 18 Norte 0 -- -- 19
2019-06-02 14:00:00 29 4 Oeste 15 Norte 0 -- -- 22
2019-06-02 13:00:00 26.9 4 Norte 15 Norte 0 -- -- 25
2019-06-02 12:00:00 25.3 5 Noroeste 13 Norte 0 -- -- 28
2019-06-02 11:00:00 23.8 7 Norte 13 Norte 0 -- -- 31
2019-06-02 10:00:00 21.2 8 Nordeste 12 Nordeste 0 -- -- 41
2019-06-02 09:00:00 17.5 2 Norte 5 Norte 0 -- -- 50
2019-06-02 08:00:00 13.6 2 Sur 5 Sudoeste 0 -- -- 70
2019-06-02 07:00:00 10.4 0 Calma 3 Sudoeste 0 -- -- 84
2019-06-02 06:00:00 11.5 0 Calma 5 Nordeste 0 -- -- 76
2019-06-02 05:00:00 13.3 5 Nordeste 8 Nordeste 0 -- -- 63
2019-06-02 04:00:00 12.3 3 Este 5 Nordeste 0 -- -- 73
2019-06-02 03:00:00 12.7 3 Nordeste 5 Nordeste 0 -- -- 67
2019-06-02 02:00:00 13.3 0 Calma 4 Nordeste 0 -- -- 63
2019-06-02 01:00:00 14.9 3 Nordeste 8 Sur 0 -- -- 58
2019-06-02 00:00:00 16.5 7 Sur 12 Sur 0 -- -- 48
2019-06-01 23:00:00 17.9 3 Sudeste 9 Sudeste 0 -- -- 44
2019-06-01 22:00:00 20.8 4 Nordeste 19 Nordeste 0 -- -- 33
2019-06-01 21:00:00 24 11 Nordeste 24 Nordeste 0 -- -- 27
2019-06-01 20:00:00 26.7 14 Nordeste 24 Nordeste 0 -- -- 23
2019-06-01 19:00:00 27.3 16 Nordeste 27 Nordeste 0 -- -- 23
2019-06-01 18:00:00 28.3 16 Nordeste 28 Nordeste 0 -- -- 22
2019-06-01 17:00:00 28.5 15 Nordeste 27 Nordeste 0 -- -- 22
2019-06-01 16:00:00 28.7 10 Nordeste 27 Nordeste 0 -- -- 24
2019-06-01 15:00:00 28.5 12 Nordeste 26 Norte 0 -- -- 24
2019-06-01 14:00:00 27.9 11 Nordeste 23 Nordeste 0 -- -- 25
2019-06-01 13:00:00 26.3 10 Norte 18 Nordeste 0 -- -- 28
2019-06-01 12:00:00 24.6 8 Nordeste 19 Nordeste 0 -- -- 33
2019-06-01 11:00:00 22.8 10 Nordeste 19 Norte 0 -- -- 39
2019-06-01 10:00:00 21.1 10 Nordeste 16 Nordeste 0 -- -- 49
2019-06-01 09:00:00 18.2 6 Nordeste 9 Norte 0 -- -- 60
2019-06-01 08:00:00 14.8 5 Nordeste 6 Nordeste 0 -- -- 69
2019-06-01 07:00:00 11.6 3 Nordeste 9 Nordeste 0 -- -- 81
2019-06-01 06:00:00 12.2 8 Nordeste 9 Nordeste 0 -- -- 76
2019-06-01 05:00:00 12.9 6 Nordeste 8 Nordeste 0 -- -- 73
2019-06-01 04:00:00 13.3 4 Nordeste 9 Nordeste 0 -- -- 73
2019-06-01 03:00:00 14.1 5 Nordeste 9 Nordeste 0 -- -- 68
2019-06-01 02:00:00 14.6 6 Nordeste 8 Nordeste 0 -- -- 65
2019-06-01 01:00:00 15.4 5 Nordeste 8 Nordeste 0 -- -- 62
2019-06-01 00:00:00 16.2 4 Nordeste 8 Norte 0 -- -- 61
2019-05-31 23:00:00 17.8 7 Norte 12 Nordeste 0 -- -- 55
2019-05-31 22:00:00 20.3 3 Norte 22 Nordeste 0 -- -- 47
2019-05-31 21:00:00 22.6 14 Nordeste 27 Nordeste 0 -- -- 39
2019-05-31 20:00:00 25 17 Nordeste 28 Nordeste 0 -- -- 37
2019-05-31 19:00:00 25.9 18 Nordeste 30 Nordeste 0 -- -- 35
2019-05-31 18:00:00 26.8 15 Nordeste 30 Este 0 -- -- 36
2019-05-31 17:00:00 27.5 14 Nordeste 30 Nordeste 0 -- -- 34
2019-05-31 16:00:00 27.8 13 Nordeste 28 Nordeste 0 -- -- 34
2019-05-31 15:00:00 27.6 15 Nordeste 31 Nordeste 0 -- -- 31
2019-05-31 14:00:00 27 16 Nordeste 24 Nordeste 0 -- -- 31
2019-05-31 13:00:00 26 11 Nordeste 23 Nordeste 0 -- -- 30
2019-05-31 12:00:00 24.3 4 Sudoeste 14 Nordeste 0 -- -- 41
2019-05-31 11:00:00 22.2 8 Norte 14 Nordeste 0 -- -- 42
2019-05-31 10:00:00 20.2 7 Nordeste 13 Norte 0 -- -- 52
2019-05-31 09:00:00 18.1 7 Norte 11 Norte 0 -- -- 65
2019-05-31 08:00:00 14 7 Nordeste 10 Norte 0 -- -- 87
2019-05-31 07:00:00 11.5 4 Norte 8 Norte 0 -- -- 92
2019-05-31 06:00:00 12.3 6 Nordeste 8 Nordeste 0 -- -- 91
2019-05-31 05:00:00 12.6 5 Nordeste 7 Nordeste 0 -- -- 88
2019-05-31 04:00:00 13 5 Nordeste 8 Este 0 -- -- 86
2019-05-31 03:00:00 13.7 4 Nordeste 8 Sudeste 0 -- -- 85
2019-05-31 02:00:00 14.2 4 Sudeste 9 Sudeste 0 -- -- 85
2019-05-31 01:00:00 14.7 4 Sur 6 Sudoeste 0 -- -- 84
2019-05-31 00:00:00 16.1 2 Sur 10 Oeste 0 -- -- 76
2019-05-30 23:00:00 17.8 4 Este 15 Noroeste 0 -- -- 66
2019-05-30 22:00:00 19.4 11 Norte 19 Noroeste 0 -- -- 56
2019-05-30 21:00:00 22.1 3 Norte 14 Noroeste 0 -- -- 46
2019-05-30 20:00:00 25.2 7 Noroeste 23 Oeste 0 -- -- 37
2019-05-30 19:00:00 25.9 12 Oeste 36 Oeste 0 -- -- 37
2019-05-30 18:00:00 27.1 14 Sudoeste 30 Sudoeste 0 -- -- 34
2019-05-30 17:00:00 27.3 6 Sur 18 Norte 0 -- -- 32
2019-05-30 16:00:00 26.4 11 Norte 28 Nordeste 0 -- -- 33
2019-05-30 15:00:00 27 5 Oeste 20 Sudoeste 0 -- -- 35
2019-05-30 14:00:00 25.4 6 Sudoeste 18 Norte 0 -- -- 40
2019-05-30 13:00:00 23.7 7 Norte 17 Norte 0 -- -- 46
2019-05-30 12:00:00 22.2 3 Norte 17 Nordeste 0 -- -- 52
2019-05-30 11:00:00 20.7 7 Nordeste 15 Norte 0 -- -- 56
2019-05-30 10:00:00 18.8 6 Norte 11 Norte 0 -- -- 67
2019-05-30 09:00:00 16.8 6 Norte 9 Nordeste 0 -- -- 70
2019-05-30 08:00:00 14.4 5 Nordeste 9 Nordeste 0 -- -- 79
2019-05-30 07:00:00 11.7 5 Nordeste 6 Nordeste 0 -- -- 89
2019-05-30 06:00:00 12.1 3 Norte 7 Nordeste 0 -- -- 87
2019-05-30 05:00:00 12.7 6 Nordeste 8 Nordeste 0 -- -- 84
2019-05-30 04:00:00 12.6 2 Nordeste 5 Este 0 -- -- 87
2019-05-30 03:00:00 13 3 Nordeste 5 Este 0 -- -- 85
2019-05-30 02:00:00 13.9 4 Norte 7 Este 0 -- -- 80
2019-05-30 01:00:00 13.8 3 Norte 7 Este 0 -- -- 79
2019-05-30 00:00:00 15.1 2 Este 9 Este 0 -- -- 67
2019-05-29 23:00:00 16.6 6 Norte 11 Nordeste 0 -- -- 53
2019-05-29 22:00:00 18 4 Sudeste 12 Este 0 -- -- 57
2019-05-29 21:00:00 21.1 3 Norte 21 Nordeste 0 -- -- 44
2019-05-29 20:00:00 23 12 Nordeste 25 Nordeste 0 -- -- 39
2019-05-29 19:00:00 23.4 14 Nordeste 31 Nordeste 0 -- -- 38
2019-05-29 18:00:00 24.1 19 Nordeste 31 Nordeste 0 -- -- 38
2019-05-29 17:00:00 24.4 19 Nordeste 33 Nordeste 0 -- -- 40
2019-05-29 16:00:00 25.5 18 Nordeste 33 Nordeste 0 -- -- 39
2019-05-29 15:00:00 25 18 Nordeste 32 Nordeste 0 -- -- 41
2019-05-29 14:00:00 24.7 10 Norte 17 Norte 0 -- -- 40
2019-05-29 13:00:00 23.8 9 Nordeste 18 Nordeste 0 -- -- 43
2019-05-29 12:00:00 22.4 9 Norte 19 Nordeste 0 -- -- 46
2019-05-29 11:00:00 21.7 5 Oeste 17 Nordeste 0 -- -- 49
2019-05-29 10:00:00 19.9 9 Nordeste 21 Nordeste 0 -- -- 59
2019-05-29 09:00:00 18.5 9 Norte 19 Nordeste 0 -- -- 77
2019-05-29 08:00:00 15.8 4 Nordeste 6 Nordeste 0 -- -- 92
2019-05-29 07:00:00 14.5 4 Nordeste 6 Nordeste 0 -- -- 95
2019-05-29 06:00:00 14.9 4 Norte 6 Norte 0 -- -- 93
2019-05-29 05:00:00 15.6 3 Norte 6 Este 0 -- -- 94
2019-05-29 04:00:00 15.9 3 Nordeste 8 Nordeste 0 -- -- 92
2019-05-29 03:00:00 16.4 4 Este 9 Nordeste 0 -- -- 92
2019-05-29 02:00:00 16.6 7 Nordeste 11 Este 0 -- -- 92
2019-05-29 01:00:00 17.4 8 Norte 18 Norte 0 -- -- 88
2019-05-29 00:00:00 18.3 12 Norte 24 Nordeste 0 -- -- 85
2019-05-28 23:00:00 19.4 14 Norte 22 Nordeste 0 -- -- 78
2019-05-28 22:00:00 20.2 14 Norte 24 Nordeste 0 -- -- 74
2019-05-28 21:00:00 21.9 14 Norte 29 Nordeste 0 -- -- 68
2019-05-28 20:00:00 24.9 16 Norte 26 Nordeste 0 -- -- 57
2019-05-28 19:00:00 27.7 10 Norte 24 Oeste 0 -- -- 49
2019-05-28 18:00:00 29.7 11 Oeste 19 Noroeste 0 -- -- 42
2019-05-28 17:00:00 29.4 10 Norte 23 Norte 0 -- -- 41
2019-05-28 16:00:00 29.3 9 Norte 24 Nordeste 0 -- -- 39
2019-05-28 15:00:00 28.6 9 Norte 21 Noroeste 0 -- -- 40
2019-05-28 14:00:00 27.5 8 Norte 26 Nordeste 0 -- -- 40
2019-05-28 13:00:00 25.9 13 Nordeste 26 Nordeste 0 -- -- 47
2019-05-28 12:00:00 23.4 13 Nordeste 28 Nordeste 0 -- -- 59
2019-05-28 11:00:00 22.9 15 Nordeste 32 Nordeste 0 -- -- 62
2019-05-28 10:00:00 21.2 13 Nordeste 21 Nordeste 0 -- -- 72
2019-05-28 09:00:00 19.5 14 Nordeste 20 Nordeste 0 -- -- 82
2019-05-28 08:00:00 17.6 9 Nordeste 14 Nordeste 0 -- -- 91
2019-05-28 07:00:00 17.7 7 Nordeste 12 Nordeste 0 -- -- 94
2019-05-28 06:00:00 17.3 6 Nordeste 13 Nordeste 0 -- -- 95
2019-05-28 05:00:00 16.9 10 Nordeste 14 Nordeste 0 -- -- 96
2019-05-28 04:00:00 16.5 5 Norte 8 Nordeste 0 -- -- 96
2019-05-28 03:00:00 16.2 6 Nordeste 9 Nordeste 0 -- -- 95
2019-05-28 02:00:00 16.4 7 Nordeste 9 Nordeste 0 -- -- 93
2019-05-28 01:00:00 17.2 9 Este 12 Nordeste 0 -- -- 90
2019-05-28 00:00:00 18.7 3 Sudoeste 40 Este 0 -- -- 81
2019-05-27 23:00:00 20.1 14 Sudeste 31 Oeste 1 -- -- 73
2019-05-27 22:00:00 21.8 13 Sudoeste 32 Sudoeste 0 -- -- 53
2019-05-27 21:00:00 23.4 13 Sudoeste 33 Oeste 0 -- -- 47
2019-05-27 20:00:00 26.5 19 Sur 37 Sudoeste 0 -- -- 32
2019-05-27 19:00:00 28.9 20 Sur 37 Sur 0 -- -- 33
2019-05-27 18:00:00 30.2 17 Sudoeste 31 Sudoeste 0 -- -- 34
2019-05-27 17:00:00 28.9 21 Sudoeste 39 Sudoeste 0 -- -- 37
2019-05-27 16:00:00 30.2 19 Sudoeste 36 Sudoeste 0 -- -- 38
2019-05-27 15:00:00 30.4 8 Norte 21 Norte 0 -- -- 27
2019-05-27 14:00:00 29.1 7 Este 17 Norte 0 -- -- 30
2019-05-27 13:00:00 28.4 7 Sudeste 16 Nordeste 0 -- -- 33
2019-05-27 12:00:00 25.8 5 Nordeste 14 Norte 0 -- -- 41
2019-05-27 11:00:00 23.4 3 Oeste 9 Oeste 0 -- -- 46
2019-05-27 10:00:00 20.3 6 Oeste 12 Sudoeste 0 -- -- 64
2019-05-27 09:00:00 17.8 5 Sudoeste 9 Sur 0 -- -- 77
2019-05-27 08:00:00 14.2 2 Sudoeste 6 Sudoeste 0 -- -- 89
2019-05-27 07:00:00 12.5 3 Sudoeste 4 Este 0 -- -- 94
2019-05-27 06:00:00 13 3 Este 4 Este 0 -- -- 93
2019-05-27 05:00:00 13.1 2 Nordeste 4 Nordeste 0 -- -- 89
2019-05-27 04:00:00 13.7 4 Nordeste 7 Nordeste 0 -- -- 89
2019-05-27 03:00:00 14.2 4 Nordeste 7 Nordeste 0 -- -- 86
2019-05-27 02:00:00 15.4 5 Sur 10 Sur 0 -- -- 80
2019-05-27 01:00:00 15.9 4 Sur 13 Sudoeste 0 -- -- 74
2019-05-27 00:00:00 18.8 6 Sudoeste 21 Sudoeste 0 -- -- 59